Time;durP1;ratioP1;P1;durP2;ratioP2;P2;SDS_P1;SDS_P2;PMS_P1;PMS_P2;Temp;Humidity;BMP_temperature;BMP_pressure;BME280_temperature;BME280_humidity;BME280_pressure;Samples;Min_cycle;Max_cycle;Signal;HPM_P1;HPM_P2
2022/04/12 00:02:14;;;;;;;2.40;2.20;;;5.20;71.00;;;;;;6282300;28;20188;-49
2022/04/12 00:05:15;;;;;;;4.63;2.43;;;5.20;71.10;;;;;;6265883;28;20427;-53
2022/04/12 00:08:16;;;;;;;2.73;2.23;;;5.10;71.10;;;;;;6300051;28;20199;-50
2022/04/12 00:11:17;;;;;;;3.07;2.60;;;5.10;71.20;;;;;;6282169;28;20222;-51
2022/04/12 00:14:18;;;;;;;2.33;2.13;;;5.00;71.30;;;;;;6249209;28;20247;-54
2022/04/12 00:20:38;;;;;;;3.07;2.30;;;5.00;71.50;;;;;;6284259;28;20272;-54
2022/04/12 00:23:39;;;;;;;3.37;2.33;;;5.00;71.60;;;;;;6281963;28;20188;-50
2022/04/12 00:26:40;;;;;;;3.10;2.20;;;4.90;71.80;;;;;;6282127;28;20200;-52
2022/04/12 00:29:41;;;;;;;2.90;2.37;;;4.90;71.90;;;;;;6282762;28;20232;-51
2022/04/12 00:32:42;;;;;;;2.40;2.20;;;4.90;72.10;;;;;;6270037;28;20362;-54
2022/04/12 00:35:42;;;;;;;2.73;2.00;;;4.90;72.10;;;;;;6251624;28;20188;-52
2022/04/12 00:38:44;;;;;;;2.13;1.90;;;4.80;72.30;;;;;;6275397;28;20204;-54
2022/04/12 00:41:44;;;;;;;2.23;2.03;;;4.80;72.20;;;;;;6281674;28;20221;-53
2022/04/12 00:44:45;;;;;;;2.73;2.30;;;4.80;72.30;;;;;;6265692;28;20177;-53
2022/04/12 00:47:46;;;;;;;2.37;2.03;;;4.80;72.30;;;;;;6294945;28;20213;-50
2022/04/12 00:50:47;;;;;;;2.47;2.27;;;4.70;72.40;;;;;;6272970;28;20187;-48
2022/04/12 00:53:48;;;;;;;2.93;2.40;;;4.70;72.50;;;;;;6281262;28;20224;-51
2022/04/12 00:56:51;;;;;;;1.93;1.73;;;4.70;72.50;;;;;;6283604;28;20221;-49
2022/04/12 00:59:54;;;;;;;4.97;2.57;;;4.70;72.60;;;;;;6285973;28;20635;-50
2022/04/12 01:02:55;;;;;;;3.07;2.37;;;4.60;72.60;;;;;;6287282;28;20204;-53
2022/04/12 01:05:57;;;;;;;3.07;2.50;;;4.60;72.80;;;;;;6284028;28;20216;-52
2022/04/12 01:08:58;;;;;;;2.67;2.10;;;4.60;73.00;;;;;;6281192;28;20260;-48
2022/04/12 01:12:02;;;;;;;2.43;2.10;;;4.60;73.00;;;;;;6281251;28;20211;-49
2022/04/12 01:15:31;;;;;;;3.40;2.60;;;4.60;73.10;;;;;;6266517;28;20205;-53
2022/04/12 01:18:32;;;;;;;2.37;2.13;;;4.60;73.30;;;;;;6281216;28;20169;-52
2022/04/12 01:21:39;;;;;;;3.50;2.00;;;4.50;73.40;;;;;;6277301;28;20214;-51
2022/04/12 01:24:41;;;;;;;2.13;1.93;;;4.50;73.40;;;;;;6298111;28;20177;-50
2022/04/12 01:27:42;;;;;;;2.47;2.27;;;4.50;73.50;;;;;;6271790;28;20270;-53
2022/04/12 01:30:42;;;;;;;2.77;2.43;;;4.50;73.60;;;;;;6254946;28;20225;-51
2022/04/12 01:33:43;;;;;;;3.63;2.43;;;4.40;73.50;;;;;;6232151;28;20302;-53
2022/04/12 01:36:44;;;;;;;2.37;2.13;;;4.40;73.60;;;;;;6271670;28;20197;-52
2022/04/12 01:39:45;;;;;;;3.70;2.70;;;4.40;73.50;;;;;;6231184;28;20197;-53
2022/04/12 01:42:46;;;;;;;3.20;2.57;;;4.40;73.60;;;;;;6231884;28;20202;-51
2022/04/12 01:45:47;;;;;;;4.57;2.60;;;4.40;73.70;;;;;;6269436;28;20261;-53
2022/04/12 01:48:49;;;;;;;4.40;2.47;;;4.30;73.80;;;;;;6267565;28;20201;-54
2022/04/12 01:51:50;;;;;;;2.67;2.47;;;4.30;74.10;;;;;;6256024;28;20209;-53
2022/04/12 01:54:51;;;;;;;3.00;2.70;;;4.30;74.20;;;;;;6256492;28;20182;-50
2022/04/12 01:57:52;;;;;;;2.50;2.30;;;4.30;74.20;;;;;;6249232;28;20198;-55
2022/04/12 02:00:53;;;;;;;5.77;2.83;;;4.30;74.30;;;;;;6235661;28;20211;-55
2022/04/12 02:03:54;;;;;;;3.23;2.80;;;4.30;74.30;;;;;;6235957;28;20189;-54
2022/04/12 02:06:54;;;;;;;4.33;2.50;;;4.20;74.40;;;;;;6252340;28;20211;-56
2022/04/12 02:09:55;;;;;;;4.30;3.03;;;4.20;74.40;;;;;;6250072;28;20201;-54
2022/04/12 02:12:56;;;;;;;2.47;2.27;;;4.10;74.40;;;;;;6260128;28;20209;-53
2022/04/12 02:15:57;;;;;;;2.43;2.23;;;4.10;74.50;;;;;;6245639;28;20194;-55
2022/04/12 02:18:58;;;;;;;3.20;2.40;;;4.00;74.60;;;;;;6251909;28;20191;-52
2022/04/12 02:21:58;;;;;;;3.40;2.60;;;4.00;74.70;;;;;;6235687;28;20269;-54
2022/04/12 02:24:59;;;;;;;3.60;2.60;;;3.90;74.70;;;;;;6255750;28;20284;-56
2022/04/12 02:28:00;;;;;;;3.40;2.53;;;3.90;75.00;;;;;;6253989;28;20194;-55
2022/04/12 02:31:00;;;;;;;2.97;2.23;;;3.90;75.20;;;;;;6235560;28;20237;-55
2022/04/12 02:34:01;;;;;;;4.90;3.40;;;3.90;75.30;;;;;;6248580;28;20257;-54
2022/04/12 02:37:02;;;;;;;3.07;2.53;;;3.90;75.40;;;;;;6260260;28;20189;-53
2022/04/12 02:40:04;;;;;;;3.40;2.53;;;3.80;75.50;;;;;;6273979;28;20214;-55
2022/04/12 02:43:05;;;;;;;2.80;2.20;;;3.80;75.60;;;;;;6267299;28;20185;-50
2022/04/12 02:46:06;;;;;;;3.33;2.60;;;3.80;75.60;;;;;;6267823;28;20197;-54
2022/04/12 02:49:07;;;;;;;3.27;2.90;;;3.80;75.80;;;;;;6256161;28;20198;-51
2022/04/12 02:52:08;;;;;;;2.80;2.50;;;3.80;75.90;;;;;;6251717;28;20222;-52
2022/04/12 02:55:09;;;;;;;3.13;2.83;;;3.70;75.90;;;;;;6240569;28;20189;-51
2022/04/12 02:58:10;;;;;;;3.87;3.10;;;3.70;76.10;;;;;;6258856;28;20198;-55
2022/04/12 03:01:10;;;;;;;3.07;2.73;;;3.70;76.30;;;;;;6250541;28;20297;-51
2022/04/12 03:04:11;;;;;;;3.47;2.87;;;3.60;76.30;;;;;;6254608;28;20188;-52
2022/04/12 03:07:12;;;;;;;3.43;3.03;;;3.60;76.30;;;;;;6252420;28;20225;-53
2022/04/12 03:10:13;;;;;;;3.80;2.70;;;3.60;76.40;;;;;;6233937;28;20204;-55
2022/04/12 03:13:13;;;;;;;3.43;2.97;;;3.60;76.60;;;;;;6237659;28;20274;-52
2022/04/12 03:16:14;;;;;;;3.53;3.03;;;3.50;76.70;;;;;;6259206;28;20192;-50
2022/04/12 03:19:15;;;;;;;3.93;2.80;;;3.50;76.60;;;;;;6251489;28;20190;-52
2022/04/12 03:22:16;;;;;;;3.03;2.67;;;3.50;76.60;;;;;;6234095;28;20183;-54
2022/04/12 03:25:17;;;;;;;4.20;3.07;;;3.40;76.60;;;;;;6256661;28;20206;-50
2022/04/12 03:28:18;;;;;;;3.17;2.73;;;3.40;76.80;;;;;;6250326;28;20187;-50
2022/04/12 03:31:18;;;;;;;2.80;2.10;;;3.40;76.90;;;;;;6276980;28;20237;-52
2022/04/12 03:34:19;;;;;;;2.97;2.67;;;3.40;77.00;;;;;;6250367;28;20226;-54
2022/04/12 03:37:20;;;;;;;2.70;2.50;;;3.40;77.00;;;;;;6266207;28;20197;-56
2022/04/12 03:40:27;;;;;;;3.30;2.70;;;3.40;77.00;;;;;;6249767;28;20205;-52
2022/04/12 03:43:27;;;;;;;3.10;2.57;;;3.40;77.00;;;;;;6249780;28;20206;-54
2022/04/12 03:46:28;;;;;;;2.93;2.63;;;3.40;77.00;;;;;;6257741;28;20193;-52
2022/04/12 03:49:29;;;;;;;3.83;2.50;;;3.30;77.00;;;;;;6251576;28;20204;-56
2022/04/12 03:52:30;;;;;;;4.40;2.50;;;3.30;77.10;;;;;;6249964;28;20210;-53
2022/04/12 03:55:30;;;;;;;5.10;2.60;;;3.30;77.20;;;;;;6250147;28;20204;-50
2022/04/12 03:58:31;;;;;;;3.97;2.53;;;3.30;77.30;;;;;;6233549;28;20280;-53
2022/04/12 04:01:32;;;;;;;2.90;2.60;;;3.30;77.30;;;;;;6233252;28;20190;-53
2022/04/12 04:04:33;;;;;;;4.03;2.73;;;3.30;77.40;;;;;;6238115;28;20232;-53
2022/04/12 04:07:33;;;;;;;3.90;2.90;;;3.30;77.40;;;;;;6240982;28;20203;-56
2022/04/12 04:10:34;;;;;;;5.90;2.97;;;3.20;77.70;;;;;;6234635;28;20193;-53
2022/04/12 04:13:36;;;;;;;3.80;2.90;;;3.20;77.60;;;;;;6233981;28;20229;-56
2022/04/12 04:16:40;;;;;;;3.07;2.43;;;3.10;77.70;;;;;;6242098;28;20186;-53
2022/04/12 04:19:41;;;;;;;3.33;2.90;;;3.10;77.70;;;;;;6248477;28;20201;-54
2022/04/12 04:22:42;;;;;;;4.20;3.47;;;3.00;77.70;;;;;;6232948;28;20194;-56
2022/04/12 04:25:43;;;;;;;3.93;3.27;;;3.00;77.90;;;;;;6252871;28;20198;-54
2022/04/12 04:28:44;;;;;;;4.23;3.27;;;3.00;78.10;;;;;;6240710;28;20237;-54
2022/04/12 04:31:45;;;;;;;3.33;2.57;;;3.00;78.30;;;;;;6244875;28;20241;-55
2022/04/12 04:34:46;;;;;;;3.93;3.20;;;2.90;78.30;;;;;;6237779;28;20205;-54
2022/04/12 04:37:50;;;;;;;3.83;3.00;;;3.00;78.40;;;;;;6256442;28;20209;-56
2022/04/12 04:40:51;;;;;;;3.17;2.63;;;3.00;78.50;;;;;;6244318;28;20201;-54
2022/04/12 04:43:52;;;;;;;4.13;2.83;;;3.00;78.60;;;;;;6237680;28;20213;-53
2022/04/12 04:46:52;;;;;;;6.43;4.00;;;3.10;78.60;;;;;;6256820;28;20276;-56
2022/04/12 04:49:53;;;;;;;3.47;3.10;;;3.10;78.70;;;;;;6248728;28;20219;-51
2022/04/12 04:52:54;;;;;;;4.30;3.00;;;3.20;78.60;;;;;;6231618;28;20411;-55
2022/04/12 04:55:55;;;;;;;5.33;3.20;;;3.10;78.50;;;;;;6233904;28;20190;-56
2022/04/12 04:58:57;;;;;;;3.57;2.90;;;3.20;78.30;;;;;;6232854;28;20195;-57
2022/04/12 05:01:57;;;;;;;3.87;3.10;;;3.20;78.30;;;;;;6234654;28;20183;-57
2022/04/12 05:04:58;;;;;;;3.50;3.20;;;3.30;78.40;;;;;;6256918;28;20192;-56
2022/04/12 05:07:59;;;;;;;5.97;2.90;;;3.30;78.50;;;;;;6256723;28;20193;-57
2022/04/12 05:11:00;;;;;;;5.27;3.37;;;3.30;78.50;;;;;;6256911;28;20188;-55
2022/04/12 05:14:00;;;;;;;5.33;3.30;;;3.40;78.50;;;;;;6255971;28;20227;-55
2022/04/12 05:17:01;;;;;;;4.13;2.83;;;3.50;78.60;;;;;;6241244;28;20232;-54
2022/04/12 05:20:05;;;;;;;5.10;3.00;;;3.50;78.50;;;;;;6238639;28;20204;-51
2022/04/12 05:23:06;;;;;;;5.60;2.90;;;3.60;78.40;;;;;;6248287;28;20175;-55
2022/04/12 05:26:06;;;;;;;4.13;2.90;;;3.60;78.30;;;;;;6231909;28;20204;-56
2022/04/12 05:29:07;;;;;;;5.10;3.07;;;3.70;78.10;;;;;;6245319;28;20194;-50
2022/04/12 05:32:09;;;;;;;5.30;3.43;;;3.80;78.00;;;;;;6289803;28;20238;-54
2022/04/12 05:35:11;;;;;;;5.57;3.13;;;3.80;78.00;;;;;;6297512;28;20188;-58
2022/04/12 05:38:12;;;;;;;6.00;3.50;;;3.90;77.90;;;;;;6285301;28;20342;-54
2022/04/12 05:41:13;;;;;;;4.03;3.10;;;3.90;77.90;;;;;;6265926;28;20192;-56
2022/04/12 05:44:14;;;;;;;5.10;2.90;;;4.00;77.80;;;;;;6273437;28;20204;-57
2022/04/12 05:47:14;;;;;;;4.23;3.03;;;4.10;77.70;;;;;;6296987;28;20212;-53
2022/04/12 05:50:16;;;;;;;4.57;3.37;;;4.30;77.60;;;;;;6293749;28;20197;-52
2022/04/12 05:53:18;;;;;;;3.70;2.90;;;4.30;77.30;;;;;;6280719;28;20209;-55
2022/04/12 05:56:18;;;;;;;3.17;2.60;;;4.40;77.30;;;;;;6269433;28;20188;-50
2022/04/12 05:59:19;;;;;;;3.17;2.70;;;4.40;77.20;;;;;;6276610;28;20190;-54
2022/04/12 06:02:20;;;;;;;3.73;2.73;;;4.50;77.20;;;;;;6275902;28;20200;-56
2022/04/12 06:05:22;;;;;;;3.23;2.60;;;4.60;77.10;;;;;;6286940;28;20196;-55
2022/04/12 06:08:23;;;;;;;5.03;4.13;;;4.70;76.90;;;;;;6293564;28;20188;-50
2022/04/12 06:11:24;;;;;;;6.57;5.40;;;4.70;76.80;;;;;;6293909;28;20197;-53
2022/04/12 06:14:24;;;;;;;6.77;4.67;;;4.80;76.70;;;;;;6282383;28;20222;-56
2022/04/12 06:17:33;;;;;;;6.47;4.10;;;4.80;76.60;;;;;;6293463;28;20224;-51
2022/04/12 06:20:34;;;;;;;4.27;3.50;;;4.90;76.40;;;;;;6281478;28;20185;-54
2022/04/12 06:23:34;;;;;;;4.17;3.27;;;4.90;76.30;;;;;;6304951;28;20196;-55
2022/04/12 06:26:35;;;;;;;5.30;3.03;;;5.00;76.30;;;;;;6286196;28;20203;-54
2022/04/12 06:29:36;;;;;;;4.40;3.50;;;5.10;76.20;;;;;;6287940;28;20373;-56
2022/04/12 06:32:38;;;;;;;4.37;3.27;;;5.20;76.10;;;;;;6284439;28;20228;-52
2022/04/12 06:35:38;;;;;;;4.63;3.33;;;5.30;76.00;;;;;;6279042;28;20275;-57
2022/04/12 06:38:39;;;;;;;3.63;2.30;;;5.40;75.80;;;;;;6251923;28;20199;-54
2022/04/12 06:41:40;;;;;;;4.03;2.90;;;5.50;75.70;;;;;;6251485;28;20195;-56
2022/04/12 06:44:41;;;;;;;3.00;2.53;;;5.60;75.40;;;;;;6255411;28;20187;-58
2022/04/12 06:47:43;;;;;;;2.90;2.33;;;5.70;75.10;;;;;;6267410;28;20197;-56
2022/04/12 06:50:43;;;;;;;3.70;2.97;;;5.80;75.00;;;;;;6299965;28;20285;-53
2022/04/12 06:53:44;;;;;;;3.13;2.47;;;5.90;74.50;;;;;;6284337;28;20263;-53
2022/04/12 06:56:45;;;;;;;3.10;2.80;;;5.90;74.20;;;;;;6294017;28;20193;-49
2022/04/12 06:59:46;;;;;;;2.50;2.30;;;6.10;74.10;;;;;;6268278;28;20624;-50
2022/04/12 07:02:47;;;;;;;3.33;2.67;;;6.10;74.00;;;;;;6274214;28;20193;-56
2022/04/12 07:05:49;;;;;;;2.67;2.23;;;6.20;73.80;;;;;;6267536;28;20185;-56
2022/04/12 07:08:49;;;;;;;2.67;2.23;;;6.30;73.60;;;;;;6283660;28;20392;-56
2022/04/12 07:11:51;;;;;;;2.87;2.53;;;6.30;73.20;;;;;;6267560;28;20196;-56
2022/04/12 07:14:52;;;;;;;2.20;2.00;;;6.40;72.80;;;;;;6283003;28;20221;-56
2022/04/12 07:17:52;;;;;;;2.20;2.00;;;6.50;72.40;;;;;;6291296;28;20226;-54
2022/04/12 07:20:54;;;;;;;4.87;3.50;;;6.60;72.10;;;;;;6266841;28;20283;-52
2022/04/12 07:23:55;;;;;;;2.83;2.53;;;6.70;70.50;;;;;;6283484;28;20276;-55
2022/04/12 07:26:56;;;;;;;6.43;3.63;;;6.80;69.20;;;;;;6266579;28;20189;-55
2022/04/12 07:29:57;;;;;;;6.37;3.90;;;6.90;66.50;;;;;;6266750;28;20232;-56
2022/04/12 07:32:58;;;;;;;3.80;3.27;;;7.30;64.00;;;;;;6269157;28;20225;-56
2022/04/12 07:35:59;;;;;;;4.33;3.47;;;7.50;63.90;;;;;;6291731;28;20192;-55
2022/04/12 07:38:59;;;;;;;2.53;2.33;;;7.60;64.40;;;;;;6283037;28;20204;-55
2022/04/12 07:42:00;;;;;;;4.67;3.40;;;7.70;64.70;;;;;;6266359;28;20181;-55
2022/04/12 07:45:01;;;;;;;3.93;3.10;;;7.70;64.60;;;;;;6270376;28;20188;-53
2022/04/12 07:48:02;;;;;;;4.10;2.97;;;7.80;63.70;;;;;;6275126;28;20204;-56
2022/04/12 07:51:03;;;;;;;4.33;3.67;;;7.90;63.50;;;;;;6274271;28;20208;-57
2022/04/12 07:54:06;;;;;;;4.70;3.20;;;8.00;62.80;;;;;;6291220;28;20208;-55
2022/04/12 07:57:07;;;;;;;5.73;3.70;;;8.10;62.20;;;;;;6282277;28;20207;-57
2022/04/12 08:00:08;;;;;;;4.00;3.60;;;8.20;61.30;;;;;;6266063;28;20185;-53
2022/04/12 08:03:13;;;;;;;7.27;4.63;;;8.30;61.10;;;;;;6267217;28;20220;-54
2022/04/12 08:06:14;;;;;;;5.07;4.07;;;8.40;60.60;;;;;;6270030;28;20201;-55
2022/04/12 08:09:15;;;;;;;5.00;4.10;;;8.60;60.80;;;;;;6282942;28;20196;-54
2022/04/12 08:12:16;;;;;;;6.20;3.73;;;8.80;59.30;;;;;;6249346;28;20217;-52
2022/04/12 08:15:16;;;;;;;6.10;3.83;;;9.00;58.90;;;;;;6265422;28;20197;-52
2022/04/12 08:18:17;;;;;;;6.90;4.20;;;9.10;58.40;;;;;;6265951;28;20188;-53
2022/04/12 08:21:36;;;;;;;5.57;3.40;;;9.30;59.40;;;;;;6282408;28;20176;-52
2022/04/12 08:24:37;;;;;;;5.07;3.83;;;9.40;58.10;;;;;;6304612;28;20192;-52
2022/04/12 08:27:39;;;;;;;6.70;4.10;;;9.40;58.50;;;;;;6290725;28;20176;-50
2022/04/12 08:30:40;;;;;;;4.77;3.80;;;9.60;57.20;;;;;;6290215;28;20240;-51
2022/04/12 08:33:42;;;;;;;5.33;3.47;;;9.70;55.90;;;;;;6290577;28;20225;-50
2022/04/12 08:36:43;;;;;;;5.40;4.00;;;9.80;55.30;;;;;;6281887;28;20199;-49
2022/04/12 08:39:43;;;;;;;4.90;4.20;;;10.10;55.30;;;;;;6265334;28;20190;-53
2022/04/12 08:42:45;;;;;;;4.67;3.83;;;10.10;54.40;;;;;;6264789;28;20192;-50
2022/04/12 08:45:47;;;;;;;4.73;4.23;;;10.30;54.70;;;;;;6294838;28;20188;-54
2022/04/12 08:48:48;;;;;;;4.93;3.60;;;10.30;54.60;;;;;;6290075;28;20204;-53
2022/04/12 08:51:49;;;;;;;5.00;3.93;;;10.40;55.60;;;;;;6281140;28;20286;-50
2022/04/12 08:54:50;;;;;;;3.83;3.50;;;10.60;55.10;;;;;;6270634;28;20224;-52
2022/04/12 08:57:51;;;;;;;5.63;3.60;;;10.70;54.40;;;;;;6266011;28;20197;-51
2022/04/12 09:00:51;;;;;;;6.30;4.10;;;10.80;55.80;;;;;;6248372;28;20185;-49
2022/04/12 09:03:52;;;;;;;4.63;3.70;;;10.90;53.70;;;;;;6280822;28;20200;-53
2022/04/12 09:06:58;;;;;;;5.70;4.23;;;11.10;54.50;;;;;;6289219;28;20214;-52
2022/04/12 09:10:09;;;;;;;6.20;3.93;;;11.30;52.80;;;;;;6281256;28;20197;-55
2022/04/12 09:13:16;;;;;;;3.50;3.20;;;11.30;53.00;;;;;;6284884;28;20216;-53
2022/04/12 09:16:17;;;;;;;6.10;4.03;;;11.50;53.70;;;;;;6265321;28;20182;-52
2022/04/12 09:19:46;;;;;;;5.80;4.40;;;11.60;52.80;;;;;;6279877;28;20196;-55
2022/04/12 09:22:47;;;;;;;5.03;4.00;;;11.90;51.10;;;;;;6287772;28;20197;-52
2022/04/12 09:25:55;;;;;;;6.70;3.93;;;12.00;51.90;;;;;;6265100;28;20246;-51
2022/04/12 09:29:00;;;;;;;5.00;4.07;;;12.00;51.10;;;;;;6282912;28;20189;-53
2022/04/12 09:32:00;;;;;;;5.70;4.23;;;12.00;51.30;;;;;;6282344;28;20198;-54
2022/04/12 09:35:01;;;;;;;6.87;3.70;;;12.10;50.30;;;;;;6264430;28;20185;-53
2022/04/12 09:38:02;;;;;;;4.47;3.63;;;12.20;51.70;;;;;;6280910;28;20183;-53
2022/04/12 09:41:42;;;;;;;4.47;3.60;;;12.20;50.30;;;;;;6264955;28;20193;-53
2022/04/12 09:44:43;;;;;;;7.87;4.03;;;12.30;50.10;;;;;;6181962;28;20710;-52
2022/04/12 09:47:46;;;;;;;5.27;3.53;;;12.30;50.90;;;;;;6186978;28;20289;-53
2022/04/12 09:50:51;;;;;;;6.83;3.80;;;12.40;50.40;;;;;;6262391;28;20193;-49
2022/04/12 09:53:52;;;;;;;5.53;4.13;;;12.50;50.20;;;;;;6281113;28;20208;-51
2022/04/12 09:56:57;;;;;;;5.37;4.03;;;12.60;51.70;;;;;;6264065;28;20201;-54
2022/04/12 09:59:58;;;;;;;4.30;3.90;;;12.80;49.40;;;;;;6264489;28;20182;-52
2022/04/12 10:03:05;;;;;;;4.40;3.90;;;12.90;49.60;;;;;;6264197;28;20269;-53
2022/04/12 10:06:07;;;;;;;4.30;3.90;;;12.90;50.90;;;;;;6303252;28;20196;-55
2022/04/12 10:09:11;;;;;;;6.00;4.00;;;13.20;49.50;;;;;;6284939;28;20203;-53
2022/04/12 10:12:12;;;;;;;6.37;4.23;;;13.30;49.00;;;;;;6281387;28;20194;-52
2022/04/12 10:15:13;;;;;;;4.33;3.27;;;13.30;48.40;;;;;;6263829;28;20215;-53
2022/04/12 10:18:15;;;;;;;5.63;3.57;;;13.30;48.60;;;;;;6264244;28;20205;-54
2022/04/12 10:21:16;;;;;;;7.50;3.53;;;13.40;48.90;;;;;;6279154;28;20246;-54
2022/04/12 10:24:18;;;;;;;7.10;3.67;;;13.70;49.90;;;;;;6293559;28;20184;-53
2022/04/12 10:27:22;;;;;;;3.57;3.27;;;14.00;47.80;;;;;;6301898;28;20185;-53
2022/04/12 10:30:28;;;;;;;4.70;3.63;;;14.00;46.50;;;;;;6268232;28;20240;-53
2022/04/12 10:33:29;;;;;;;5.00;4.00;;;14.00;46.40;;;;;;6294414;28;20245;-53
2022/04/12 10:36:55;;;;;;;6.13;3.73;;;14.10;47.20;;;;;;6284857;28;20173;-54
2022/04/12 10:40:02;;;;;;;5.43;3.50;;;14.40;47.30;;;;;;6290159;28;20190;-53
2022/04/12 10:43:03;;;;;;;4.73;3.97;;;14.70;45.60;;;;;;6285293;28;20213;-52
2022/04/12 10:46:06;;;;;;;4.20;3.63;;;14.80;48.10;;;;;;6284764;28;20219;-51
2022/04/12 10:49:07;;;;;;;6.80;4.27;;;14.90;45.90;;;;;;6303562;28;20193;-52
2022/04/12 10:52:08;;;;;;;6.50;4.40;;;15.10;46.10;;;;;;6284395;28;20254;-52
2022/04/12 10:55:18;;;;;;;8.10;4.37;;;15.10;44.80;;;;;;6284792;28;20189;-49
2022/04/12 10:58:33;;;;;;;5.30;3.50;;;15.10;44.80;;;;;;6278615;28;20187;-52
2022/04/12 11:01:35;;;;;;;4.37;3.10;;;15.30;45.90;;;;;;6284501;28;20233;-52
2022/04/12 11:04:35;;;;;;;4.73;3.80;;;15.30;45.10;;;;;;6287739;28;20197;-53
2022/04/12 11:07:37;;;;;;;5.53;3.30;;;15.40;43.90;;;;;;6270145;28;20220;-54
2022/04/12 11:10:38;;;;;;;4.30;3.30;;;15.50;45.70;;;;;;6281443;28;20204;-50
2022/04/12 11:13:38;;;;;;;4.43;3.13;;;15.80;44.90;;;;;;6272133;28;20240;-48
2022/04/12 11:16:50;;;;;;;4.83;3.00;;;16.00;43.40;;;;;;6285543;28;20251;-48
2022/04/12 11:19:54;;;;;;;3.97;3.43;;;16.10;43.70;;;;;;6294534;28;20197;-52
2022/04/12 11:22:57;;;;;;;4.03;3.20;;;16.10;41.50;;;;;;6291159;28;20200;-53
2022/04/12 11:26:29;;;;;;;5.07;3.30;;;16.30;42.40;;;;;;6308925;28;20263;-55
2022/04/12 11:29:31;;;;;;;3.37;3.00;;;16.30;42.60;;;;;;6308596;28;20261;-52
2022/04/12 11:32:32;;;;;;;3.10;2.50;;;16.60;42.00;;;;;;6290384;28;20532;-55
2022/04/12 11:35:33;;;;;;;3.13;2.60;;;16.80;41.20;;;;;;6291509;28;20220;-55
2022/04/12 11:38:36;;;;;;;5.20;2.83;;;16.80;40.90;;;;;;6308651;28;20185;-55
2022/04/12 11:41:37;;;;;;;6.97;3.40;;;16.90;41.00;;;;;;6282666;28;20231;-53
2022/04/12 11:44:38;;;;;;;7.10;3.27;;;17.20;40.60;;;;;;6283119;28;20177;-52
2022/04/12 11:47:43;;;;;;;4.70;3.20;;;17.30;39.60;;;;;;6302111;28;20271;-49
2022/04/12 11:50:55;;;;;;;3.20;2.70;;;17.40;40.80;;;;;;6294045;28;20231;-54
2022/04/12 11:53:56;;;;;;;5.63;3.80;;;17.90;38.60;;;;;;6290291;28;20248;-52
2022/04/12 11:57:21;;;;;;;3.60;3.13;;;18.20;39.40;;;;;;6288858;28;20205;-54
2022/04/12 12:00:25;;;;;;;4.13;2.93;;;18.30;38.50;;;;;;6284595;28;20194;-54
2022/04/12 12:03:27;;;;;;;3.97;3.40;;;18.30;36.90;;;;;;6282735;28;20196;-52
2022/04/12 12:06:27;;;;;;;4.23;3.10;;;18.60;36.70;;;;;;6282307;28;20212;-52
2022/04/12 12:09:29;;;;;;;4.23;3.00;;;18.70;35.90;;;;;;6268280;28;20192;-53
2022/04/12 12:12:41;;;;;;;3.83;2.90;;;18.90;37.90;;;;;;6299390;28;20208;-56
2022/04/12 12:15:44;;;;;;;3.43;2.77;;;19.20;36.30;;;;;;6305990;28;20197;-54
2022/04/12 12:18:46;;;;;;;3.87;2.37;;;19.40;36.50;;;;;;6282513;28;20197;-53
2022/04/12 12:21:47;;;;;;;3.23;2.57;;;19.70;35.20;;;;;;6249278;28;20189;-56
2022/04/12 12:24:59;;;;;;;2.67;2.10;;;20.30;34.30;;;;;;6265549;28;20197;-56
2022/04/12 12:28:00;;;;;;;3.27;2.43;;;21.10;34.70;;;;;;6299828;28;20215;-55
2022/04/12 12:31:03;;;;;;;6.73;3.20;;;22.00;34.20;;;;;;6281962;28;20237;-56
2022/04/12 12:34:04;;;;;;;3.97;3.20;;;22.70;31.20;;;;;;6265305;28;20221;-56
2022/04/12 12:37:08;;;;;;;3.37;2.30;;;22.70;29.80;;;;;;6265242;28;20181;-54
2022/04/12 12:40:24;;;;;;;3.20;2.53;;;23.50;30.30;;;;;;6295283;28;20189;-56
2022/04/12 12:43:27;;;;;;;2.37;1.97;;;24.10;27.80;;;;;;6298557;28;20189;-56
2022/04/12 12:46:30;;;;;;;2.47;2.20;;;24.40;27.90;;;;;;6321077;28;20253;-56
2022/04/12 12:49:42;;;;;;;2.50;2.10;;;24.80;28.20;;;;;;6272238;28;20189;-56
2022/04/12 12:52:46;;;;;;;2.10;1.90;;;25.50;25.90;;;;;;6281846;28;20355;-56
2022/04/12 12:55:51;;;;;;;3.17;2.43;;;26.00;26.50;;;;;;6281512;28;20204;-57
2022/04/12 12:59:17;;;;;;;4.13;2.60;;;26.30;24.90;;;;;;6274925;28;20204;-56
2022/04/12 13:02:18;;;;;;;1.87;1.63;;;26.60;25.70;;;;;;6281197;28;20185;-57
2022/04/12 13:05:19;;;;;;;2.17;1.70;;;27.30;24.70;;;;;;6264895;28;20211;-57
2022/04/12 13:08:25;;;;;;;3.23;2.40;;;28.10;24.20;;;;;;6265538;28;20207;-56
2022/04/12 13:11:25;;;;;;;2.50;2.30;;;28.70;21.50;;;;;;6286593;28;20219;-57
2022/04/12 13:14:26;;;;;;;3.63;1.80;;;28.10;22.40;;;;;;6278024;28;20224;-57
2022/04/12 13:17:28;;;;;;;2.50;2.00;;;28.90;22.70;;;;;;6278239;28;20191;-58
2022/04/12 13:20:28;;;;;;;2.57;2.10;;;29.70;21.60;;;;;;6289500;28;20190;-57
2022/04/12 13:23:29;;;;;;;5.23;2.60;;;30.20;21.40;;;;;;6298304;28;20197;-57
2022/04/12 13:26:30;;;;;;;3.10;1.97;;;29.80;21.10;;;;;;6281144;28;20242;-56
2022/04/12 13:29:31;;;;;;;4.33;2.40;;;29.80;20.50;;;;;;6285111;28;20273;-57
2022/04/12 13:32:32;;;;;;;2.50;2.30;;;29.70;22.00;;;;;;6279632;28;20279;-57
2022/04/12 13:35:33;;;;;;;2.10;1.90;;;30.00;20.80;;;;;;6295428;28;20222;-57
2022/04/12 13:38:33;;;;;;;2.70;2.20;;;30.30;20.90;;;;;;6261983;28;20194;-57
2022/04/12 13:41:39;;;;;;;2.27;1.80;;;30.90;20.10;;;;;;6294922;28;20225;-57
2022/04/12 13:44:40;;;;;;;4.47;2.23;;;31.00;20.30;;;;;;6300723;28;20333;-57
2022/04/12 13:47:42;;;;;;;2.60;2.23;;;31.00;20.10;;;;;;6281650;28;20277;-57
2022/04/12 13:50:43;;;;;;;2.80;2.20;;;30.20;20.10;;;;;;6284845;28;20200;-56
2022/04/12 13:53:44;;;;;;;3.47;2.50;;;28.60;21.30;;;;;;6278382;28;20303;-57
2022/04/12 13:56:45;;;;;;;2.87;2.57;;;27.40;21.60;;;;;;6281880;28;20197;-57
2022/04/12 13:59:46;;;;;;;2.83;2.63;;;27.50;22.00;;;;;;6286250;28;20251;-57
2022/04/12 14:02:46;;;;;;;3.00;2.70;;;27.30;23.30;;;;;;6308440;28;20211;-56
2022/04/12 14:05:47;;;;;;;3.20;2.77;;;27.90;23.60;;;;;;6291350;28;20225;-57
2022/04/12 14:08:48;;;;;;;3.17;2.70;;;27.50;22.90;;;;;;6286370;28;20184;-57
2022/04/12 14:11:49;;;;;;;3.33;2.50;;;26.90;24.30;;;;;;6282207;28;20203;-57
2022/04/12 14:14:49;;;;;;;2.80;2.10;;;27.10;23.70;;;;;;6282429;28;20201;-56
2022/04/12 14:17:50;;;;;;;5.63;3.60;;;27.70;22.60;;;;;;6265609;28;20241;-57
2022/04/12 14:20:51;;;;;;;4.77;3.30;;;27.00;23.90;;;;;;6274629;28;20195;-56
2022/04/12 14:23:52;;;;;;;5.00;3.63;;;27.40;24.00;;;;;;6283074;28;20197;-57
2022/04/12 14:26:53;;;;;;;2.33;2.13;;;27.30;24.00;;;;;;6266095;28;20229;-57
2022/04/12 14:29:54;;;;;;;5.73;3.63;;;27.70;23.60;;;;;;6281896;28;20252;-56
2022/04/12 14:32:54;;;;;;;4.17;3.40;;;26.70;23.80;;;;;;6266140;28;20221;-56
2022/04/12 14:35:55;;;;;;;3.90;2.87;;;25.10;25.60;;;;;;6281175;28;20224;-56
2022/04/12 14:38:56;;;;;;;3.30;2.87;;;26.20;24.60;;;;;;6264715;28;20190;-57
2022/04/12 14:41:57;;;;;;;3.63;3.13;;;27.00;24.10;;;;;;6265034;28;20197;-56
2022/04/12 14:44:57;;;;;;;7.00;4.60;;;27.60;23.10;;;;;;6271906;28;20209;-56
2022/04/12 14:47:58;;;;;;;4.43;4.03;;;27.50;23.40;;;;;;6272797;28;20189;-56
2022/04/12 14:50:59;;;;;;;5.70;4.73;;;27.20;24.30;;;;;;6299327;28;20287;-57
2022/04/12 14:54:00;;;;;;;4.60;4.10;;;27.40;23.90;;;;;;6290148;28;20203;-57
2022/04/12 14:57:01;;;;;;;4.33;3.50;;;27.70;24.50;;;;;;6269763;28;20197;-56
2022/04/12 15:00:06;;;;;;;3.80;2.90;;;28.00;23.40;;;;;;6276237;28;20176;-54
2022/04/12 15:03:07;;;;;;;5.60;4.70;;;28.70;23.20;;;;;;6292467;28;20212;-54
2022/04/12 15:06:08;;;;;;;4.10;3.70;;;27.90;22.60;;;;;;6299666;28;20196;-54
2022/04/12 15:09:09;;;;;;;3.33;2.97;;;28.50;22.20;;;;;;6293155;28;20184;-55
2022/04/12 15:12:10;;;;;;;3.93;3.63;;;29.10;22.70;;;;;;6287747;28;20180;-52
2022/04/12 15:15:13;;;;;;;4.27;3.00;;;29.50;21.60;;;;;;6276583;28;20196;-50
2022/04/12 15:18:14;;;;;;;3.90;3.10;;;30.20;21.40;;;;;;6282736;28;20197;-54
2022/04/12 15:21:15;;;;;;;4.67;4.17;;;30.40;21.30;;;;;;6287297;28;20219;-55
2022/04/12 15:24:16;;;;;;;5.37;4.67;;;30.30;20.70;;;;;;6266806;28;20217;-55
2022/04/12 15:27:17;;;;;;;4.10;3.67;;;29.80;21.00;;;;;;6276809;28;20247;-53
2022/04/12 15:30:18;;;;;;;3.50;3.20;;;30.30;21.30;;;;;;6285159;28;20229;-55
2022/04/12 15:33:18;;;;;;;4.57;3.00;;;30.60;20.80;;;;;;6282490;28;20260;-55
2022/04/12 15:36:19;;;;;;;3.63;3.33;;;30.60;20.90;;;;;;6266246;28;20201;-54
2022/04/12 15:39:23;;;;;;;5.10;4.00;;;30.40;20.90;;;;;;6273490;28;20223;-52
2022/04/12 15:42:23;;;;;;;3.03;2.80;;;30.10;21.60;;;;;;6301276;28;20193;-51
2022/04/12 15:45:24;;;;;;;4.13;3.23;;;29.90;22.10;;;;;;6283555;28;20197;-53
2022/04/12 15:48:25;;;;;;;4.13;3.70;;;29.60;22.00;;;;;;6282684;28;20212;-55
2022/04/12 15:51:26;;;;;;;4.40;3.80;;;29.10;22.90;;;;;;6281499;28;20285;-54
2022/04/12 15:54:26;;;;;;;4.20;3.00;;;27.80;23.50;;;;;;6276448;28;20288;-53
2022/04/12 15:57:28;;;;;;;4.20;3.40;;;27.10;24.50;;;;;;6265352;28;20201;-55
2022/04/12 16:00:29;;;;;;;3.83;3.07;;;26.80;24.50;;;;;;6274572;28;20238;-55